Time;durP1;ratioP1;P1;durP2;ratioP2;P2;SDS_P1;SDS_P2;PMS_P1;PMS_P2;Temp;Humidity;BMP_temperature;BMP_pressure;BME280_temperature;BME280_humidity;BME280_pressure;Samples;Min_cycle;Max_cycle;Signal;HPM_P1;HPM_P2
2021/09/06 00:00:08;;;;;;;10.05;8.93;;;18.90;99.90;;;;;;2081373;28;20079;-70
2021/09/06 00:01:09;;;;;;;16.05;8.80;;;18.80;99.90;;;;;;2075589;28;20018;-70
2021/09/06 00:02:10;;;;;;;14.98;9.38;;;18.80;99.90;;;;;;2084915;28;20056;-70
2021/09/06 00:03:11;;;;;;;14.25;9.75;;;18.80;99.90;;;;;;2099183;28;20491;-70
2021/09/06 00:04:12;;;;;;;14.23;8.55;;;18.80;99.90;;;;;;2094820;28;21003;-70
2021/09/06 00:05:13;;;;;;;13.73;10.17;;;18.70;99.90;;;;;;2092043;28;20569;-70
2021/09/06 00:06:14;;;;;;;12.75;8.90;;;18.70;99.90;;;;;;2094940;28;20331;-70
2021/09/06 00:07:14;;;;;;;13.43;9.52;;;18.60;99.90;;;;;;2083326;28;20025;-70
2021/09/06 00:08:15;;;;;;;14.25;9.48;;;18.60;99.90;;;;;;2084745;28;20079;-70
2021/09/06 00:09:16;;;;;;;12.75;9.45;;;18.60;99.90;;;;;;2078444;28;20029;-70
2021/09/06 00:10:19;;;;;;;17.40;10.18;;;18.60;99.90;;;;;;2086132;28;20097;-70
2021/09/06 00:11:20;;;;;;;13.95;9.65;;;18.50;99.90;;;;;;2083702;28;20021;-69
2021/09/06 00:12:21;;;;;;;13.15;10.27;;;18.50;99.90;;;;;;2083043;28;20507;-70
2021/09/06 00:13:21;;;;;;;17.48;10.73;;;18.50;99.90;;;;;;2089099;28;20033;-70
2021/09/06 00:14:22;;;;;;;15.60;10.15;;;18.50;99.90;;;;;;2077988;28;20563;-70
2021/09/06 00:15:23;;;;;;;16.05;11.07;;;18.50;99.90;;;;;;2071250;28;20041;-70
2021/09/06 00:16:24;;;;;;;17.85;10.27;;;18.50;99.90;;;;;;2081711;28;20810;-70
2021/09/06 00:17:25;;;;;;;12.50;10.48;;;18.40;99.90;;;;;;2069999;28;20033;-69
2021/09/06 00:18:26;;;;;;;18.08;11.05;;;18.40;99.90;;;;;;2089437;28;20024;-70
2021/09/06 00:19:27;;;;;;;20.05;11.57;;;18.40;99.90;;;;;;2081444;28;20028;-70
2021/09/06 00:20:28;;;;;;;15.70;11.35;;;18.40;99.90;;;;;;2068552;28;20023;-70
2021/09/06 00:21:31;;;;;;;14.23;10.88;;;18.40;99.90;;;;;;2073141;28;20062;-70
2021/09/06 00:22:32;;;;;;;15.77;10.95;;;18.40;99.90;;;;;;2080150;28;20021;-70
2021/09/06 00:23:33;;;;;;;16.87;11.53;;;18.30;99.90;;;;;;2073796;28;20083;-70
2021/09/06 00:24:35;;;;;;;14.57;11.02;;;18.30;99.90;;;;;;2080721;28;20334;-69
2021/09/06 00:25:36;;;;;;;18.83;11.00;;;18.30;99.90;;;;;;2075096;28;20085;-71
2021/09/06 00:26:38;;;;;;;14.70;10.98;;;18.30;99.90;;;;;;2075786;28;20022;-72
2021/09/06 00:27:39;;;;;;;14.38;11.02;;;18.20;99.90;;;;;;2080555;28;20018;-69
2021/09/06 00:28:39;;;;;;;15.70;10.55;;;18.20;99.90;;;;;;2080678;28;20048;-69
2021/09/06 00:29:40;;;;;;;13.25;10.70;;;18.20;99.90;;;;;;2075337;28;20045;-70
2021/09/06 00:30:41;;;;;;;13.73;10.88;;;18.10;99.90;;;;;;2070017;28;20027;-69
2021/09/06 00:31:42;;;;;;;15.68;10.85;;;18.10;99.90;;;;;;2074244;28;20057;-71
2021/09/06 00:32:42;;;;;;;14.68;11.02;;;18.10;99.90;;;;;;2072007;28;20021;-69
2021/09/06 00:33:43;;;;;;;13.45;9.75;;;18.00;99.90;;;;;;2078300;28;20698;-70
2021/09/06 00:34:44;;;;;;;18.38;11.20;;;18.00;99.90;;;;;;2068105;28;20045;-70
2021/09/06 00:35:46;;;;;;;15.10;10.68;;;18.00;99.90;;;;;;2068917;28;20018;-69
2021/09/06 00:36:47;;;;;;;17.27;10.68;;;18.00;99.90;;;;;;2064717;28;20057;-71
2021/09/06 00:37:48;;;;;;;16.27;10.75;;;18.10;99.90;;;;;;2076444;28;20097;-71
2021/09/06 00:38:49;;;;;;;14.43;9.90;;;18.00;99.90;;;;;;2074107;28;20025;-70
2021/09/06 00:39:49;;;;;;;16.00;10.88;;;18.00;99.90;;;;;;2078594;28;20030;-70
2021/09/06 00:40:51;;;;;;;12.63;10.15;;;18.00;99.90;;;;;;2090956;28;20024;-70
2021/09/06 00:41:51;;;;;;;15.07;10.45;;;17.90;99.90;;;;;;2090228;28;20719;-70
2021/09/06 00:42:52;;;;;;;15.38;10.77;;;17.90;99.90;;;;;;2078178;28;20030;-70
2021/09/06 00:43:54;;;;;;;16.83;10.77;;;17.90;99.90;;;;;;2081578;28;20025;-70
2021/09/06 00:44:54;;;;;;;15.52;10.40;;;17.90;99.90;;;;;;2070948;28;20030;-70
2021/09/06 00:45:58;;;;;;;12.80;9.85;;;17.80;99.90;;;;;;2084886;28;20112;-70
2021/09/06 00:47:00;;;;;;;14.57;10.13;;;17.80;99.90;;;;;;2082279;28;20032;-70
2021/09/06 00:48:01;;;;;;;;;;;17.80;99.90;;;;;;2078575;28;20018;-70
2021/09/06 00:49:01;;;;;;;14.68;10.80;;;17.80;99.90;;;;;;2078768;28;20008;-70
2021/09/06 00:50:06;;;;;;;16.27;11.32;;;17.80;99.90;;;;;;2070979;28;20030;-70
2021/09/06 00:51:07;;;;;;;15.93;10.88;;;17.80;99.90;;;;;;2079766;28;20024;-70
2021/09/06 00:52:08;;;;;;;16.15;10.18;;;17.70;99.90;;;;;;2077523;28;20079;-70
2021/09/06 00:53:09;;;;;;;14.70;10.60;;;17.70;99.90;;;;;;2080119;28;20768;-70
2021/09/06 00:54:10;;;;;;;14.25;10.93;;;17.70;99.90;;;;;;2078017;28;20030;-70
2021/09/06 00:55:13;;;;;;;15.25;11.45;;;17.70;99.90;;;;;;2078247;28;20494;-70
2021/09/06 00:56:14;;;;;;;15.18;10.70;;;17.70;99.90;;;;;;2075115;28;20553;-70
2021/09/06 00:57:15;;;;;;;14.77;10.77;;;17.70;99.90;;;;;;2078587;28;20087;-70
2021/09/06 00:58:17;;;;;;;16.05;10.55;;;17.70;99.90;;;;;;2083877;28;20142;-70
2021/09/06 00:59:17;;;;;;;16.13;11.45;;;17.60;99.90;;;;;;2082839;28;20966;-69
2021/09/06 01:00:19;;;;;;;14.00;11.13;;;17.70;99.90;;;;;;2077336;28;20034;-69
2021/09/06 01:01:20;;;;;;;15.43;11.38;;;17.70;99.90;;;;;;2074657;28;20053;-69
2021/09/06 01:02:20;;;;;;;14.02;10.98;;;17.60;99.90;;;;;;2078584;28;20014;-70
2021/09/06 01:03:21;;;;;;;17.15;11.02;;;17.60;99.90;;;;;;2073542;28;20049;-70
2021/09/06 01:04:22;;;;;;;16.65;10.57;;;17.70;99.90;;;;;;2061967;28;20040;-71
2021/09/06 01:05:23;;;;;;;18.23;11.27;;;17.70;99.90;;;;;;2066867;28;20042;-69
2021/09/06 01:06:24;;;;;;;14.23;10.30;;;17.60;99.90;;;;;;2074941;28;20017;-70
2021/09/06 01:07:25;;;;;;;18.00;11.00;;;17.60;99.90;;;;;;2075667;28;20525;-71
2021/09/06 01:08:27;;;;;;;16.23;11.30;;;17.60;99.90;;;;;;2090855;28;20096;-70
2021/09/06 01:09:28;;;;;;;14.07;10.55;;;17.60;99.90;;;;;;2083150;28;20532;-70
2021/09/06 01:10:28;;;;;;;13.18;10.63;;;17.60;99.90;;;;;;2077489;28;20049;-70
2021/09/06 01:11:30;;;;;;;14.90;10.38;;;17.50;99.90;;;;;;2085001;28;20009;-70
2021/09/06 01:12:31;;;;;;;15.18;10.23;;;17.50;99.90;;;;;;2074092;28;20033;-70
2021/09/06 01:13:32;;;;;;;14.48;10.35;;;17.50;99.90;;;;;;2077219;28;20053;-70
2021/09/06 01:14:33;;;;;;;16.67;11.05;;;17.50;99.90;;;;;;2075049;28;20558;-70
2021/09/06 01:15:33;;;;;;;12.80;10.53;;;17.50;99.90;;;;;;2071420;28;20014;-70
2021/09/06 01:16:35;;;;;;;14.52;10.82;;;17.50;99.90;;;;;;2076994;28;20878;-70
2021/09/06 01:17:36;;;;;;;15.95;11.38;;;17.50;99.90;;;;;;2074870;28;20033;-70
2021/09/06 01:18:37;;;;;;;16.83;11.43;;;17.50;99.90;;;;;;2081694;28;20030;-70
2021/09/06 01:19:39;;;;;;;13.63;11.02;;;17.50;99.90;;;;;;2083306;28;20021;-70
2021/09/06 01:20:39;;;;;;;15.88;11.68;;;17.40;99.90;;;;;;2073657;28;20084;-70
2021/09/06 01:21:40;;;;;;;16.60;11.43;;;17.40;99.90;;;;;;2070640;28;21044;-71
2021/09/06 01:22:41;;;;;;;16.45;11.80;;;17.40;99.90;;;;;;2071129;28;20029;-70
2021/09/06 01:23:42;;;;;;;16.75;11.63;;;17.40;99.90;;;;;;2073305;28;20019;-71
2021/09/06 01:24:43;;;;;;;18.50;11.55;;;17.40;99.90;;;;;;2070900;28;20029;-70
2021/09/06 01:25:47;;;;;;;16.10;11.20;;;17.30;99.90;;;;;;2070438;28;20028;-71
2021/09/06 01:26:49;;;;;;;15.68;12.05;;;17.40;99.90;;;;;;2077339;28;20382;-70
2021/09/06 01:27:49;;;;;;;18.90;12.55;;;17.30;99.90;;;;;;2076822;28;20033;-71
2021/09/06 01:28:50;;;;;;;20.48;12.75;;;17.30;99.90;;;;;;2071280;28;20061;-70
2021/09/06 01:29:52;;;;;;;21.65;12.40;;;17.30;99.90;;;;;;2076509;28;20037;-70
2021/09/06 01:30:52;;;;;;;16.92;12.35;;;17.30;99.90;;;;;;2070963;28;20017;-70
2021/09/06 01:31:53;;;;;;;16.02;11.30;;;17.30;99.90;;;;;;2065838;28;20030;-71
2021/09/06 01:32:54;;;;;;;15.48;11.70;;;17.30;99.90;;;;;;2073308;28;20025;-71
2021/09/06 01:33:55;;;;;;;17.33;11.77;;;17.30;99.90;;;;;;2070523;28;20034;-71
2021/09/06 01:34:55;;;;;;;17.27;11.65;;;17.20;99.90;;;;;;2075959;28;20512;-71
2021/09/06 01:35:56;;;;;;;15.93;12.43;;;17.20;99.90;;;;;;2077531;28;20082;-71
2021/09/06 01:36:57;;;;;;;18.20;12.50;;;17.20;99.90;;;;;;2073730;28;20080;-70
2021/09/06 01:37:58;;;;;;;16.63;12.40;;;17.10;99.90;;;;;;2077268;28;20029;-71
2021/09/06 01:38:59;;;;;;;18.73;13.10;;;17.20;99.90;;;;;;2070355;28;20018;-71
2021/09/06 01:40:00;;;;;;;20.10;11.75;;;17.10;99.90;;;;;;2077629;28;20032;-71
2021/09/06 01:41:00;;;;;;;16.52;11.63;;;17.10;99.90;;;;;;2070230;28;20646;-72
2021/09/06 01:42:01;;;;;;;21.05;12.25;;;17.20;99.90;;;;;;2067168;28;20449;-72
2021/09/06 01:43:02;;;;;;;17.88;12.18;;;17.10;99.90;;;;;;2070591;28;20697;-71
2021/09/06 01:44:03;;;;;;;16.88;11.88;;;17.10;99.90;;;;;;2069698;28;20034;-70
2021/09/06 01:45:04;;;;;;;19.92;11.85;;;17.10;99.90;;;;;;2070274;28;20017;-70
2021/09/06 01:46:05;;;;;;;17.40;13.32;;;17.10;99.90;;;;;;2073126;28;20026;-72
2021/09/06 01:47:06;;;;;;;20.65;12.48;;;17.10;99.90;;;;;;2075510;28;20117;-73
2021/09/06 01:48:07;;;;;;;18.30;12.25;;;17.10;99.90;;;;;;2074437;28;20520;-72
2021/09/06 01:49:07;;;;;;;16.80;12.63;;;17.10;99.90;;;;;;2073904;28;20101;-72
2021/09/06 01:50:09;;;;;;;16.73;12.48;;;17.10;99.90;;;;;;2077983;28;20096;-72
2021/09/06 01:51:09;;;;;;;18.35;13.13;;;17.10;99.90;;;;;;2073828;28;20018;-72
2021/09/06 01:52:10;;;;;;;22.38;14.20;;;17.10;99.90;;;;;;2071619;28;20030;-72
2021/09/06 01:53:11;;;;;;;19.00;13.57;;;17.10;99.90;;;;;;2072622;28;20643;-72
2021/09/06 01:54:11;;;;;;;20.48;14.55;;;17.10;99.90;;;;;;2075554;28;20105;-72
2021/09/06 01:55:12;;;;;;;20.25;14.75;;;17.10;99.90;;;;;;2070822;28;20081;-73
2021/09/06 01:56:13;;;;;;;22.92;15.75;;;17.10;99.90;;;;;;2069312;28;20022;-72
2021/09/06 01:57:13;;;;;;;19.35;14.50;;;17.10;99.90;;;;;;2079134;28;20080;-72
2021/09/06 01:58:14;;;;;;;23.73;15.07;;;17.00;99.90;;;;;;2075142;28;20034;-72
2021/09/06 01:59:15;;;;;;;19.30;14.10;;;17.10;99.90;;;;;;2069519;28;20058;-72
2021/09/06 02:00:16;;;;;;;22.75;14.60;;;17.00;99.90;;;;;;2076865;28;20146;-72
2021/09/06 02:01:17;;;;;;;22.73;14.20;;;17.00;99.90;;;;;;2074111;28;20077;-73
2021/09/06 02:02:17;;;;;;;21.95;14.48;;;17.00;99.90;;;;;;2077677;28;20032;-73
2021/09/06 02:03:18;;;;;;;25.38;15.43;;;17.00;99.90;;;;;;2072817;28;20022;-71
2021/09/06 02:04:19;;;;;;;21.92;16.10;;;17.00;99.90;;;;;;2078892;28;20056;-70
2021/09/06 02:05:19;;;;;;;22.88;15.23;;;16.90;99.90;;;;;;2073528;28;20102;-72
2021/09/06 02:06:20;;;;;;;21.73;14.48;;;17.00;99.90;;;;;;2077633;28;20021;-71
2021/09/06 02:07:21;;;;;;;23.75;17.13;;;17.00;99.90;;;;;;2074858;28;20389;-71
2021/09/06 02:08:21;;;;;;;22.95;15.52;;;17.00;99.90;;;;;;2068619;28;20105;-72
2021/09/06 02:09:22;;;;;;;22.20;15.07;;;16.90;99.90;;;;;;2064409;28;20121;-71
2021/09/06 02:10:23;;;;;;;21.77;15.05;;;16.90;99.90;;;;;;2073868;28;20016;-71
2021/09/06 02:11:23;;;;;;;23.20;15.63;;;16.90;99.90;;;;;;2072440;28;20010;-70
2021/09/06 02:12:24;;;;;;;23.23;15.50;;;16.90;99.90;;;;;;2069803;28;20648;-69
2021/09/06 02:13:25;;;;;;;26.75;16.75;;;16.90;99.90;;;;;;2065760;28;20031;-72
2021/09/06 02:14:25;;;;;;;22.48;15.35;;;16.90;99.90;;;;;;2077493;28;20013;-72
2021/09/06 02:15:26;;;;;;;25.20;15.95;;;16.90;99.90;;;;;;2072825;28;20753;-72
2021/09/06 02:16:27;;;;;;;25.10;16.23;;;16.90;99.90;;;;;;2074763;28;20024;-71
2021/09/06 02:17:28;;;;;;;22.38;15.45;;;16.90;99.90;;;;;;2076030;28;20078;-71
2021/09/06 02:18:29;;;;;;;21.35;15.13;;;16.80;99.90;;;;;;2073019;28;20033;-70
2021/09/06 02:19:29;;;;;;;23.30;15.70;;;16.80;99.90;;;;;;2075123;28;20053;-70
2021/09/06 02:20:30;;;;;;;22.45;15.27;;;16.80;99.90;;;;;;2077618;28;20018;-71
2021/09/06 02:21:31;;;;;;;27.23;15.70;;;16.80;99.90;;;;;;2077098;28;20021;-71
2021/09/06 02:22:31;;;;;;;24.25;14.90;;;16.80;99.90;;;;;;2078624;28;20530;-71
2021/09/06 02:23:32;;;;;;;25.85;15.45;;;16.70;99.90;;;;;;2076428;28;20474;-70
2021/09/06 02:24:33;;;;;;;23.08;15.55;;;16.70;99.90;;;;;;2077173;28;20627;-71
2021/09/06 02:25:33;;;;;;;29.52;16.17;;;16.70;99.90;;;;;;2071562;28;20025;-71
2021/09/06 02:26:36;;;;;;;23.67;16.25;;;16.60;99.90;;;;;;2076245;28;20076;-74
2021/09/06 02:27:37;;;;;;;22.60;16.00;;;16.60;99.90;;;;;;2076550;28;20493;-70
2021/09/06 02:28:37;;;;;;;21.85;15.55;;;16.60;99.90;;;;;;2075523;28;20053;-70
2021/09/06 02:29:38;;;;;;;24.90;15.82;;;16.60;99.90;;;;;;2077754;28;20378;-71
2021/09/06 02:30:39;;;;;;;26.00;15.98;;;16.60;99.90;;;;;;2067040;28;20113;-71
2021/09/06 02:31:40;;;;;;;23.02;16.67;;;16.50;99.90;;;;;;2072172;28;20022;-71
2021/09/06 02:32:41;;;;;;;30.60;16.40;;;16.50;99.90;;;;;;2078295;28;20029;-71
2021/09/06 02:33:41;;;;;;;24.55;16.02;;;16.50;99.90;;;;;;2077516;28;20426;-71
2021/09/06 02:34:42;;;;;;;23.33;15.77;;;16.50;99.90;;;;;;2079598;28;20095;-71
2021/09/06 02:35:43;;;;;;;23.30;15.48;;;16.40;99.90;;;;;;2067024;28;20525;-69
2021/09/06 02:36:43;;;;;;;25.10;15.77;;;16.40;99.90;;;;;;2076035;28;20037;-72
2021/09/06 02:37:44;;;;;;;21.65;14.95;;;16.40;99.90;;;;;;2068898;28;20433;-71
2021/09/06 02:38:45;;;;;;;23.73;15.77;;;16.40;99.90;;;;;;2074144;28;20026;-70
2021/09/06 02:39:46;;;;;;;22.02;15.48;;;16.40;99.90;;;;;;2071741;28;20045;-71
2021/09/06 02:40:47;;;;;;;22.17;15.95;;;16.40;99.90;;;;;;2074315;28;20187;-71
2021/09/06 02:41:47;;;;;;;23.30;15.77;;;16.30;99.90;;;;;;2074913;28;20141;-71
2021/09/06 02:42:49;;;;;;;24.08;14.90;;;16.30;99.90;;;;;;2069354;28;20069;-70
2021/09/06 02:43:50;;;;;;;18.83;14.00;;;16.30;99.90;;;;;;2075156;28;20030;-71
2021/09/06 02:44:50;;;;;;;20.80;14.82;;;16.30;99.90;;;;;;2069697;28;20457;-71
2021/09/06 02:45:51;;;;;;;20.60;14.82;;;16.30;99.90;;;;;;2076363;28;20077;-72
2021/09/06 02:46:51;;;;;;;19.48;14.48;;;16.20;99.90;;;;;;2072492;28;20081;-70
2021/09/06 02:47:52;;;;;;;25.60;14.45;;;16.20;99.90;;;;;;2065506;28;20109;-71
2021/09/06 02:48:53;;;;;;;23.48;14.82;;;16.20;99.90;;;;;;2071104;28;20022;-71
2021/09/06 02:49:55;;;;;;;19.05;14.00;;;16.20;99.90;;;;;;2075848;28;20025;-71
2021/09/06 02:50:55;;;;;;;;;;;16.20;99.90;;;;;;2071842;28;20041;-70
2021/09/06 02:51:56;;;;;;;20.20;13.45;;;16.30;99.90;;;;;;2076187;28;20301;-73
2021/09/06 02:52:57;;;;;;;21.02;13.32;;;16.30;99.90;;;;;;2073952;28;20080;-70
2021/09/06 02:53:57;;;;;;;18.55;13.13;;;16.30;99.90;;;;;;2076576;28;20429;-71
2021/09/06 02:54:58;;;;;;;16.65;13.02;;;16.30;99.90;;;;;;2072818;28;20022;-70
2021/09/06 02:55:59;;;;;;;18.63;13.75;;;16.20;99.90;;;;;;2074736;28;20035;-69
2021/09/06 02:57:00;;;;;;;24.20;14.60;;;16.20;99.90;;;;;;2074911;28;20108;-71
2021/09/06 02:58:00;;;;;;;22.63;15.00;;;16.20;99.90;;;;;;2073961;28;20039;-70
2021/09/06 02:59:01;;;;;;;21.08;14.48;;;16.20;99.90;;;;;;2075434;28;20034;-72
2021/09/06 03:00:02;;;;;;;20.50;14.38;;;16.10;99.90;;;;;;2073027;28;20128;-71
2021/09/06 03:01:03;;;;;;;18.63;13.63;;;16.10;99.90;;;;;;2074802;28;20030;-70
2021/09/06 03:02:04;;;;;;;20.10;14.25;;;16.20;99.90;;;;;;2076218;28;20128;-72
2021/09/06 03:03:05;;;;;;;18.77;14.13;;;16.10;99.90;;;;;;2074099;28;20025;-71
2021/09/06 03:04:06;;;;;;;23.15;13.60;;;16.10;99.90;;;;;;2069451;28;20032;-70
2021/09/06 03:05:07;;;;;;;19.48;13.32;;;16.10;99.90;;;;;;2073278;28;20675;-71
2021/09/06 03:06:08;;;;;;;19.13;13.40;;;16.10;99.90;;;;;;2075144;28;20022;-71
2021/09/06 03:07:09;;;;;;;19.57;13.37;;;16.10;99.90;;;;;;2074168;28;20018;-70
2021/09/06 03:08:09;;;;;;;20.80;13.63;;;16.10;99.90;;;;;;2074402;28;20260;-71
2021/09/06 03:09:10;;;;;;;19.58;13.45;;;16.10;99.90;;;;;;2076823;28;20030;-72
2021/09/06 03:10:11;;;;;;;17.63;14.15;;;16.10;99.90;;;;;;2076697;28;20097;-70
2021/09/06 03:11:12;;;;;;;19.05;13.05;;;16.10;99.90;;;;;;2076359;28;20036;-71
2021/09/06 03:12:13;;;;;;;19.58;13.70;;;16.10;99.90;;;;;;2077534;28;20033;-71
2021/09/06 03:13:13;;;;;;;17.85;13.52;;;16.00;99.90;;;;;;2070380;28;20031;-70
2021/09/06 03:14:14;;;;;;;22.42;13.80;;;16.00;99.90;;;;;;2070883;28;20050;-72
2021/09/06 03:15:15;;;;;;;22.55;13.93;;;16.00;99.90;;;;;;2075502;28;20030;-70
2021/09/06 03:16:15;;;;;;;19.80;12.95;;;15.90;99.90;;;;;;2076728;28;20501;-73
2021/09/06 03:17:16;;;;;;;19.95;14.00;;;16.00;99.90;;;;;;2069319;28;20084;-71
2021/09/06 03:18:17;;;;;;;21.38;14.45;;;16.00;99.90;;;;;;2074567;28;20013;-72
2021/09/06 03:19:18;;;;;;;21.38;14.00;;;16.00;99.90;;;;;;2076594;28;20103;-70
2021/09/06 03:20:19;;;;;;;19.15;13.93;;;16.00;99.90;;;;;;2072351;28;20020;-71
2021/09/06 03:21:19;;;;;;;25.27;13.80;;;15.90;99.90;;;;;;2075659;28;20034;-72
2021/09/06 03:22:20;;;;;;;23.75;14.70;;;16.00;99.90;;;;;;2070804;28;20026;-71
2021/09/06 03:23:21;;;;;;;18.48;13.68;;;16.00;99.90;;;;;;2075441;28;20396;-70
2021/09/06 03:24:22;;;;;;;21.75;13.85;;;15.90;99.90;;;;;;2077445;28;20088;-71
2021/09/06 03:25:22;;;;;;;19.20;13.80;;;15.90;99.90;;;;;;2074296;28;20053;-71
2021/09/06 03:26:23;;;;;;;18.55;14.02;;;15.90;99.90;;;;;;2074983;28;20498;-71
2021/09/06 03:27:24;;;;;;;23.08;14.27;;;15.90;99.90;;;;;;2077573;28;20397;-71
2021/09/06 03:28:24;;;;;;;22.60;15.02;;;15.90;99.90;;;;;;2077775;28;20604;-71
2021/09/06 03:29:25;;;;;;;23.52;14.23;;;15.90;99.90;;;;;;2072371;28;20032;-72
2021/09/06 03:30:26;;;;;;;18.27;13.50;;;15.90;99.90;;;;;;2074895;28;20477;-72
2021/09/06 03:31:27;;;;;;;23.10;15.45;;;15.90;99.90;;;;;;2074179;28;20386;-72
2021/09/06 03:32:27;;;;;;;22.75;15.88;;;15.90;99.90;;;;;;2071162;28;20025;-70
2021/09/06 03:33:28;;;;;;;21.10;14.43;;;15.90;99.90;;;;;;2072914;28;20500;-71
2021/09/06 03:34:29;;;;;;;17.60;13.10;;;15.80;99.90;;;;;;2076258;28;20092;-71
2021/09/06 03:35:29;;;;;;;21.45;13.27;;;15.80;99.90;;;;;;2070671;28;20030;-72
2021/09/06 03:36:30;;;;;;;19.70;12.98;;;15.80;99.90;;;;;;2075957;28;20609;-73
2021/09/06 03:37:31;;;;;;;23.98;13.95;;;15.80;99.90;;;;;;2077820;28;20026;-72
2021/09/06 03:38:32;;;;;;;20.83;13.52;;;15.80;99.90;;;;;;2076504;28;20030;-72
2021/09/06 03:39:33;;;;;;;19.08;13.25;;;15.80;99.90;;;;;;2073651;28;20564;-71
2021/09/06 03:40:34;;;;;;;20.83;13.68;;;15.90;99.90;;;;;;2074845;28;20026;-73
2021/09/06 03:41:35;;;;;;;22.45;15.82;;;15.90;99.90;;;;;;2070038;28;20030;-73
2021/09/06 03:42:36;;;;;;;25.58;14.70;;;15.90;99.90;;;;;;2067245;28;20022;-72
2021/09/06 03:43:36;;;;;;;22.83;14.98;;;15.90;99.90;;;;;;2075078;28;20101;-71
2021/09/06 03:44:37;;;;;;;20.35;14.35;;;15.90;99.90;;;;;;2070850;28;20021;-72
2021/09/06 03:45:38;;;;;;;21.38;14.23;;;15.90;99.90;;;;;;2075781;28;20100;-72
2021/09/06 03:46:38;;;;;;;19.63;13.73;;;15.90;99.90;;;;;;2076884;28;20045;-71
2021/09/06 03:47:39;;;;;;;20.70;15.07;;;16.00;99.90;;;;;;2075419;28;20022;-71
2021/09/06 03:48:40;;;;;;;22.45;15.20;;;16.00;99.90;;;;;;2076531;28;20030;-71
2021/09/06 03:49:40;;;;;;;20.02;14.38;;;15.90;99.90;;;;;;2076948;28;20650;-73
2021/09/06 03:50:41;;;;;;;21.05;14.73;;;15.90;99.90;;;;;;2079134;28;20026;-72
2021/09/06 03:51:42;;;;;;;24.42;15.55;;;15.90;99.90;;;;;;2071887;28;20605;-72
2021/09/06 03:52:42;;;;;;;23.27;14.68;;;15.90;99.90;;;;;;2077917;28;20106;-72
2021/09/06 03:53:43;;;;;;;22.42;15.02;;;15.80;99.90;;;;;;2075964;28;20034;-72
2021/09/06 03:54:44;;;;;;;20.88;15.07;;;15.90;99.90;;;;;;2074592;28;20022;-72
2021/09/06 03:55:44;;;;;;;23.30;14.73;;;15.90;99.90;;;;;;2073910;28;20037;-72
2021/09/06 03:56:45;;;;;;;22.13;14.25;;;15.90;99.90;;;;;;2069779;28;20030;-72
2021/09/06 03:57:46;;;;;;;23.90;15.60;;;16.00;99.90;;;;;;2074645;28;20087;-71
2021/09/06 03:58:46;;;;;;;23.85;16.08;;;16.00;99.90;;;;;;2078691;28;20022;-72
2021/09/06 03:59:47;;;;;;;25.65;16.92;;;16.00;99.90;;;;;;2065191;28;20018;-71
2021/09/06 04:00:48;;;;;;;23.98;16.27;;;16.00;99.90;;;;;;2073866;28;20014;-72
2021/09/06 04:01:50;;;;;;;28.42;15.38;;;16.00;99.90;;;;;;2073929;28;20153;-72
2021/09/06 04:02:51;;;;;;;;;;;16.00;99.90;;;;;;2073816;28;20511;-72
2021/09/06 04:03:51;;;;;;;22.95;15.32;;;16.00;99.90;;;;;;2070784;28;19910;-72
2021/09/06 04:04:54;;;;;;;24.58;15.80;;;16.00;99.90;;;;;;2071385;28;20026;-71
2021/09/06 04:05:55;;;;;;;26.25;16.25;;;15.90;99.90;;;;;;2077599;28;20386;-72
2021/09/06 04:06:56;;;;;;;27.88;16.92;;;15.90;99.90;;;;;;2072773;28;20033;-72
2021/09/06 04:07:56;;;;;;;27.00;16.30;;;15.90;99.90;;;;;;2060174;28;20029;-71
2021/09/06 04:08:57;;;;;;;26.88;16.15;;;15.90;99.90;;;;;;2078361;28;20076;-72
2021/09/06 04:09:58;;;;;;;22.50;16.20;;;15.80;99.90;;;;;;2081712;28;20022;-71
2021/09/06 04:10:59;;;;;;;26.70;16.58;;;15.80;99.90;;;;;;2079860;28;20383;-71
2021/09/06 04:11:59;;;;;;;26.95;16.42;;;15.80;99.90;;;;;;2076838;28;20164;-71
2021/09/06 04:13:00;;;;;;;25.42;17.13;;;15.80;99.90;;;;;;2079054;28;20057;-72
2021/09/06 04:14:01;;;;;;;26.73;17.35;;;15.80;99.90;;;;;;2075072;28;20100;-72
2021/09/06 04:15:03;;;;;;;26.42;16.17;;;15.80;99.90;;;;;;2070020;28;20034;-73
2021/09/06 04:16:04;;;;;;;27.25;17.02;;;15.80;99.90;;;;;;2063865;28;20033;-72
2021/09/06 04:17:05;;;;;;;28.48;17.58;;;15.80;99.90;;;;;;2070501;28;20170;-74
2021/09/06 04:18:06;;;;;;;29.38;16.38;;;15.80;99.90;;;;;;2076058;28;20026;-71
2021/09/06 04:19:06;;;;;;;28.75;17.15;;;15.80;99.90;;;;;;2077531;28;20054;-72
2021/09/06 04:20:08;;;;;;;25.40;16.27;;;15.80;99.90;;;;;;2076623;28;20030;-72
2021/09/06 04:21:09;;;;;;;28.95;17.17;;;15.80;99.90;;;;;;2075673;28;20037;-72
2021/09/06 04:22:10;;;;;;;27.10;16.90;;;15.80;99.90;;;;;;2073274;28;20034;-71
2021/09/06 04:23:10;;;;;;;23.98;16.13;;;15.80;99.90;;;;;;2080411;28;20032;-72
2021/09/06 04:24:11;;;;;;;28.08;17.75;;;15.80;99.90;;;;;;2074666;28;20017;-72
2021/09/06 04:25:12;;;;;;;26.50;17.60;;;15.80;99.90;;;;;;2075781;28;20509;-72
2021/09/06 04:26:12;;;;;;;25.70;17.65;;;15.80;99.90;;;;;;2069412;28;20534;-72
2021/09/06 04:27:14;;;;;;;28.05;17.77;;;15.80;99.90;;;;;;2074737;28;20041;-72
2021/09/06 04:28:14;;;;;;;28.42;17.25;;;15.80;99.90;;;;;;2075828;28;20048;-73
2021/09/06 04:29:15;;;;;;;25.13;17.20;;;15.80;99.90;;;;;;2073027;28;20037;-72
2021/09/06 04:30:16;;;;;;;28.75;17.75;;;15.80;99.90;;;;;;2078833;28;20068;-73
2021/09/06 04:31:18;;;;;;;28.80;17.38;;;15.70;99.90;;;;;;2075060;28;20797;-73
2021/09/06 04:32:18;;;;;;;32.78;18.95;;;15.70;99.90;;;;;;2075495;28;20033;-72
2021/09/06 04:33:19;;;;;;;26.90;17.40;;;15.70;99.90;;;;;;2073279;28;20125;-73
2021/09/06 04:34:20;;;;;;;26.70;17.45;;;15.70;99.90;;;;;;2071604;28;20041;-72
2021/09/06 04:35:21;;;;;;;23.08;16.38;;;15.70;99.90;;;;;;2066035;28;20113;-73
2021/09/06 04:36:21;;;;;;;27.52;16.63;;;15.70;99.90;;;;;;2073080;28;20534;-73
2021/09/06 04:37:22;;;;;;;30.45;16.80;;;15.70;99.90;;;;;;2073378;28;20053;-74
2021/09/06 04:38:23;;;;;;;26.75;16.88;;;15.70;99.90;;;;;;2078780;28;20497;-73
2021/09/06 04:39:24;;;;;;;24.27;16.73;;;15.70;99.90;;;;;;2073818;28;20033;-73
2021/09/06 04:40:24;;;;;;;29.95;17.35;;;15.70;99.90;;;;;;2070733;28;20032;-74
2021/09/06 04:41:25;;;;;;;28.80;17.85;;;15.70;99.90;;;;;;2078721;28;20087;-72
2021/09/06 04:42:26;;;;;;;29.70;18.15;;;15.70;99.90;;;;;;2073490;28;20022;-73
2021/09/06 04:43:26;;;;;;;26.20;17.83;;;15.70;99.90;;;;;;2073819;28;20220;-72
2021/09/06 04:44:27;;;;;;;27.35;17.88;;;15.70;99.90;;;;;;2075543;28;20533;-73
2021/09/06 04:45:28;;;;;;;29.52;18.38;;;15.70;99.90;;;;;;2068408;28;20061;-73
2021/09/06 04:46:29;;;;;;;27.75;18.92;;;15.70;99.90;;;;;;2068701;28;20112;-73
2021/09/06 04:47:29;;;;;;;30.67;20.00;;;15.60;99.90;;;;;;2076241;28;20021;-74
2021/09/06 04:48:30;;;;;;;29.13;19.10;;;15.60;99.90;;;;;;2078965;28;20018;-73
2021/09/06 04:49:31;;;;;;;27.88;18.42;;;15.60;99.90;;;;;;2074961;28;20026;-73
2021/09/06 04:50:32;;;;;;;32.65;19.20;;;15.60;99.90;;;;;;2072438;28;20041;-74
2021/09/06 04:51:32;;;;;;;32.42;18.08;;;15.70;99.90;;;;;;2067719;28;20034;-73
2021/09/06 04:52:33;;;;;;;26.17;17.48;;;15.70;99.90;;;;;;2073478;28;20050;-73
2021/09/06 04:53:34;;;;;;;30.80;18.50;;;15.70;99.90;;;;;;2073391;28;20026;-74
2021/09/06 04:54:34;;;;;;;31.00;18.25;;;15.70;99.90;;;;;;2067224;28;20029;-73
2021/09/06 04:55:35;;;;;;;29.20;18.05;;;15.60;99.90;;;;;;2067440;28;20537;-74
2021/09/06 04:56:36;;;;;;;27.58;18.45;;;15.60;99.90;;;;;;2069440;28;20022;-73
2021/09/06 04:57:36;;;;;;;28.85;18.65;;;15.60;99.90;;;;;;2073409;28;20044;-73
2021/09/06 04:58:37;;;;;;;29.83;18.60;;;15.60;99.90;;;;;;2074134;28;20044;-73
2021/09/06 04:59:38;;;;;;;34.55;18.55;;;15.60;99.90;;;;;;2073225;28;20706;-73
2021/09/06 05:00:38;;;;;;;32.83;19.48;;;15.60;99.90;;;;;;2064186;28;20162;-72
2021/09/06 05:01:39;;;;;;;27.23;17.75;;;15.50;99.90;;;;;;2071818;28;20116;-72
2021/09/06 05:02:40;;;;;;;29.23;18.70;;;15.50;99.90;;;;;;2073941;28;20037;-73
2021/09/06 05:03:40;;;;;;;31.80;18.75;;;15.50;99.90;;;;;;2071796;28;20610;-73
2021/09/06 05:04:41;;;;;;;30.67;17.38;;;15.50;99.90;;;;;;2073445;28;20481;-73
2021/09/06 05:05:42;;;;;;;28.85;18.00;;;15.40;99.90;;;;;;2073214;28;20674;-72
2021/09/06 05:06:42;;;;;;;29.88;18.25;;;15.40;99.90;;;;;;2074531;28;20018;-72
2021/09/06 05:07:43;;;;;;;26.65;16.77;;;15.40;99.90;;;;;;2073999;28;20026;-72
2021/09/06 05:08:44;;;;;;;27.75;16.85;;;15.40;99.90;;;;;;2072905;28;20033;-73